sensor_id;sensor_type;location;lat;lon;timestamp;temperature;humidity
22781;DHT22;11557;50.884;4.322;2023-06-14T00:01:44;23.70;99.90
22781;DHT22;11557;50.884;4.322;2023-06-14T00:04:14;23.70;99.90
22781;DHT22;11557;50.884;4.322;2023-06-14T00:06:43;23.60;99.90
22781;DHT22;11557;50.884;4.322;2023-06-14T00:09:11;23.60;99.90
22781;DHT22;11557;50.884;4.322;2023-06-14T00:11:39;23.60;99.90
22781;DHT22;11557;50.884;4.322;2023-06-14T00:14:05;23.50;99.90
22781;DHT22;11557;50.884;4.322;2023-06-14T00:16:31;23.50;99.90
22781;DHT22;11557;50.884;4.322;2023-06-14T00:18:59;23.40;99.90
22781;DHT22;11557;50.884;4.322;2023-06-14T00:21:24;23.40;99.90
22781;DHT22;11557;50.884;4.322;2023-06-14T00:23:50;23.50;99.90
22781;DHT22;11557;50.884;4.322;2023-06-14T00:26:16;23.50;99.90
22781;DHT22;11557;50.884;4.322;2023-06-14T00:28:42;23.40;99.90
22781;DHT22;11557;50.884;4.322;2023-06-14T00:31:07;23.40;99.90
22781;DHT22;11557;50.884;4.322;2023-06-14T00:33:33;23.40;99.90
22781;DHT22;11557;50.884;4.322;2023-06-14T00:35:59;23.30;99.90
22781;DHT22;11557;50.884;4.322;2023-06-14T00:38:24;23.30;99.90
22781;DHT22;11557;50.884;4.322;2023-06-14T00:40:51;23.20;99.90
22781;DHT22;11557;50.884;4.322;2023-06-14T00:43:16;23.20;99.90
22781;DHT22;11557;50.884;4.322;2023-06-14T00:45:42;23.20;99.90
22781;DHT22;11557;50.884;4.322;2023-06-14T00:48:08;23.10;99.90
22781;DHT22;11557;50.884;4.322;2023-06-14T00:50:35;23.10;99.90
22781;DHT22;11557;50.884;4.322;2023-06-14T00:53:02;23.10;99.90
22781;DHT22;11557;50.884;4.322;2023-06-14T00:55:28;23.00;99.90
22781;DHT22;11557;50.884;4.322;2023-06-14T00:57:55;23.00;99.90
22781;DHT22;11557;50.884;4.322;2023-06-14T01:00:22;23.00;99.90
22781;DHT22;11557;50.884;4.322;2023-06-14T01:02:48;23.00;99.90
22781;DHT22;11557;50.884;4.322;2023-06-14T01:05:16;23.00;99.90
22781;DHT22;11557;50.884;4.322;2023-06-14T01:08:07;22.90;99.90
22781;DHT22;11557;50.884;4.322;2023-06-14T01:11:07;22.90;99.90
22781;DHT22;11557;50.884;4.322;2023-06-14T01:13:36;22.80;99.90
22781;DHT22;11557;50.884;4.322;2023-06-14T01:16:03;22.80;99.90
22781;DHT22;11557;50.884;4.322;2023-06-14T01:18:30;22.70;99.90
22781;DHT22;11557;50.884;4.322;2023-06-14T01:20:56;22.60;99.90
22781;DHT22;11557;50.884;4.322;2023-06-14T01:23:23;22.70;99.90
22781;DHT22;11557;50.884;4.322;2023-06-14T01:25:50;22.70;99.90
22781;DHT22;11557;50.884;4.322;2023-06-14T01:28:20;22.70;99.90
22781;DHT22;11557;50.884;4.322;2023-06-14T01:30:48;22.70;99.90
22781;DHT22;11557;50.884;4.322;2023-06-14T01:33:16;22.60;99.90
22781;DHT22;11557;50.884;4.322;2023-06-14T01:35:45;22.60;99.90
22781;DHT22;11557;50.884;4.322;2023-06-14T01:38:13;22.70;99.90
22781;DHT22;11557;50.884;4.322;2023-06-14T01:40:39;22.70;99.90
22781;DHT22;11557;50.884;4.322;2023-06-14T01:43:05;22.70;99.90
22781;DHT22;11557;50.884;4.322;2023-06-14T01:45:33;22.60;99.90
22781;DHT22;11557;50.884;4.322;2023-06-14T01:47:59;22.50;99.90
22781;DHT22;11557;50.884;4.322;2023-06-14T01:50:29;22.50;99.90
22781;DHT22;11557;50.884;4.322;2023-06-14T01:52:55;22.40;99.90
22781;DHT22;11557;50.884;4.322;2023-06-14T01:55:21;22.40;99.90
22781;DHT22;11557;50.884;4.322;2023-06-14T01:57:47;22.50;99.90
22781;DHT22;11557;50.884;4.322;2023-06-14T02:00:14;22.50;99.90
22781;DHT22;11557;50.884;4.322;2023-06-14T02:02:41;22.40;99.90
22781;DHT22;11557;50.884;4.322;2023-06-14T02:05:07;22.50;99.90
22781;DHT22;11557;50.884;4.322;2023-06-14T02:07:33;22.50;99.90
22781;DHT22;11557;50.884;4.322;2023-06-14T02:09:59;22.40;99.90
22781;DHT22;11557;50.884;4.322;2023-06-14T02:12:25;22.30;99.90
22781;DHT22;11557;50.884;4.322;2023-06-14T02:14:51;22.20;99.90
22781;DHT22;11557;50.884;4.322;2023-06-14T02:17:16;22.20;99.90
22781;DHT22;11557;50.884;4.322;2023-06-14T02:19:43;22.20;99.90
22781;DHT22;11557;50.884;4.322;2023-06-14T02:22:09;22.60;99.90
22781;DHT22;11557;50.884;4.322;2023-06-14T02:24:35;22.20;99.90
22781;DHT22;11557;50.884;4.322;2023-06-14T02:27:01;22.20;99.90
22781;DHT22;11557;50.884;4.322;2023-06-14T02:29:27;22.20;99.90
22781;DHT22;11557;50.884;4.322;2023-06-14T02:31:53;22.10;99.90
22781;DHT22;11557;50.884;4.322;2023-06-14T02:34:19;22.10;99.90
22781;DHT22;11557;50.884;4.322;2023-06-14T02:36:47;22.10;99.90
22781;DHT22;11557;50.884;4.322;2023-06-14T02:39:13;22.10;99.90
22781;DHT22;11557;50.884;4.322;2023-06-14T02:41:39;22.10;99.90
22781;DHT22;11557;50.884;4.322;2023-06-14T02:44:05;22.10;99.90
22781;DHT22;11557;50.884;4.322;2023-06-14T02:46:31;22.00;99.90
22781;DHT22;11557;50.884;4.322;2023-06-14T02:48:57;21.90;99.90
22781;DHT22;11557;50.884;4.322;2023-06-14T02:51:22;21.80;99.90
22781;DHT22;11557;50.884;4.322;2023-06-14T02:53:48;21.80;99.90
22781;DHT22;11557;50.884;4.322;2023-06-14T02:56:14;21.80;99.90
22781;DHT22;11557;50.884;4.322;2023-06-14T02:58:39;21.80;99.90
22781;DHT22;11557;50.884;4.322;2023-06-14T03:01:06;21.80;99.90
22781;DHT22;11557;50.884;4.322;2023-06-14T03:03:33;21.80;99.90
22781;DHT22;11557;50.884;4.322;2023-06-14T03:05:59;21.80;99.90
22781;DHT22;11557;50.884;4.322;2023-06-14T03:08:30;21.80;99.90
22781;DHT22;11557;50.884;4.322;2023-06-14T03:10:57;21.80;99.90
22781;DHT22;11557;50.884;4.322;2023-06-14T03:13:23;21.80;99.90
22781;DHT22;11557;50.884;4.322;2023-06-14T03:15:49;21.70;99.90
22781;DHT22;11557;50.884;4.322;2023-06-14T03:18:17;21.70;99.90
22781;DHT22;11557;50.884;4.322;2023-06-14T03:20:44;21.60;99.90
22781;DHT22;11557;50.884;4.322;2023-06-14T03:23:11;21.60;99.90
22781;DHT22;11557;50.884;4.322;2023-06-14T03:25:37;21.60;99.90
22781;DHT22;11557;50.884;4.322;2023-06-14T03:28:04;21.60;99.90
22781;DHT22;11557;50.884;4.322;2023-06-14T03:30:31;21.60;99.90
22781;DHT22;11557;50.884;4.322;2023-06-14T03:32:57;21.60;99.90
22781;DHT22;11557;50.884;4.322;2023-06-14T03:35:23;21.70;99.90
22781;DHT22;11557;50.884;4.322;2023-06-14T03:37:49;21.70;99.90
22781;DHT22;11557;50.884;4.322;2023-06-14T03:40:17;21.50;99.90
22781;DHT22;11557;50.884;4.322;2023-06-14T03:42:43;21.50;99.90
22781;DHT22;11557;50.884;4.322;2023-06-14T03:45:09;21.60;99.90
22781;DHT22;11557;50.884;4.322;2023-06-14T03:47:35;21.60;99.90
22781;DHT22;11557;50.884;4.322;2023-06-14T03:50:04;21.50;99.90
22781;DHT22;11557;50.884;4.322;2023-06-14T03:52:31;21.40;99.90
22781;DHT22;11557;50.884;4.322;2023-06-14T03:54:57;21.40;99.90
22781;DHT22;11557;50.884;4.322;2023-06-14T03:57:23;21.40;99.90
22781;DHT22;11557;50.884;4.322;2023-06-14T03:59:49;21.40;99.90
22781;DHT22;11557;50.884;4.322;2023-06-14T04:02:15;21.40;99.90
22781;DHT22;11557;50.884;4.322;2023-06-14T04:04:44;21.50;99.90
22781;DHT22;11557;50.884;4.322;2023-06-14T04:07:16;21.40;99.90
22781;DHT22;11557;50.884;4.322;2023-06-14T04:09:45;21.30;99.90
22781;DHT22;11557;50.884;4.322;2023-06-14T04:12:10;21.30;99.90
22781;DHT22;11557;50.884;4.322;2023-06-14T04:14:40;21.30;99.90
22781;DHT22;11557;50.884;4.322;2023-06-14T04:17:06;21.30;99.90
22781;DHT22;11557;50.884;4.322;2023-06-14T04:19:33;21.30;99.90
22781;DHT22;11557;50.884;4.322;2023-06-14T04:21:59;21.40;99.90
22781;DHT22;11557;50.884;4.322;2023-06-14T04:24:27;21.30;99.90
22781;DHT22;11557;50.884;4.322;2023-06-14T04:27:00;21.30;99.90
22781;DHT22;11557;50.884;4.322;2023-06-14T04:29:26;21.40;99.90
22781;DHT22;11557;50.884;4.322;2023-06-14T04:31:54;21.30;99.90
22781;DHT22;11557;50.884;4.322;2023-06-14T04:34:20;21.30;99.90
22781;DHT22;11557;50.884;4.322;2023-06-14T04:36:47;21.30;99.90
22781;DHT22;11557;50.884;4.322;2023-06-14T04:39:19;21.30;99.90
22781;DHT22;11557;50.884;4.322;2023-06-14T04:41:45;21.20;99.90
22781;DHT22;11557;50.884;4.322;2023-06-14T04:44:12;21.30;99.90
22781;DHT22;11557;50.884;4.322;2023-06-14T04:46:38;21.30;99.90
22781;DHT22;11557;50.884;4.322;2023-06-14T04:49:14;21.30;99.90
22781;DHT22;11557;50.884;4.322;2023-06-14T04:51:43;21.30;99.90
22781;DHT22;11557;50.884;4.322;2023-06-14T04:54:09;21.30;99.90
22781;DHT22;11557;50.884;4.322;2023-06-14T04:56:38;21.30;99.90
22781;DHT22;11557;50.884;4.322;2023-06-14T04:59:04;21.30;99.90
22781;DHT22;11557;50.884;4.322;2023-06-14T05:01:30;21.40;99.90
22781;DHT22;11557;50.884;4.322;2023-06-14T05:03:57;21.40;99.90
22781;DHT22;11557;50.884;4.322;2023-06-14T05:06:23;21.40;99.90
22781;DHT22;11557;50.884;4.322;2023-06-14T05:08:49;21.40;99.90
22781;DHT22;11557;50.884;4.322;2023-06-14T05:11:15;21.40;99.90
22781;DHT22;11557;50.884;4.322;2023-06-14T05:13:42;21.60;99.90
22781;DHT22;11557;50.884;4.322;2023-06-14T05:16:09;21.50;99.90
22781;DHT22;11557;50.884;4.322;2023-06-14T05:18:35;21.50;99.90
22781;DHT22;11557;50.884;4.322;2023-06-14T05:21:02;21.50;99.90
22781;DHT22;11557;50.884;4.322;2023-06-14T05:23:30;21.50;99.90
22781;DHT22;11557;50.884;4.322;2023-06-14T05:25:55;21.50;99.90
22781;DHT22;11557;50.884;4.322;2023-06-14T05:28:22;21.50;99.90
22781;DHT22;11557;50.884;4.322;2023-06-14T05:30:48;21.40;99.90
22781;DHT22;11557;50.884;4.322;2023-06-14T05:33:13;21.40;99.90
22781;DHT22;11557;50.884;4.322;2023-06-14T05:35:39;21.50;99.90
22781;DHT22;11557;50.884;4.322;2023-06-14T05:38:05;21.70;99.90
22781;DHT22;11557;50.884;4.322;2023-06-14T05:40:33;21.60;99.90
22781;DHT22;11557;50.884;4.322;2023-06-14T05:42:59;21.70;99.90
22781;DHT22;11557;50.884;4.322;2023-06-14T05:45:24;21.70;99.90
22781;DHT22;11557;50.884;4.322;2023-06-14T05:47:50;21.60;99.90
22781;DHT22;11557;50.884;4.322;2023-06-14T05:50:16;21.70;99.90
22781;DHT22;11557;50.884;4.322;2023-06-14T05:52:42;21.80;99.90
22781;DHT22;11557;50.884;4.322;2023-06-14T05:55:08;21.80;99.90
22781;DHT22;11557;50.884;4.322;2023-06-14T05:57:34;21.90;99.90
22781;DHT22;11557;50.884;4.322;2023-06-14T05:59:59;21.90;99.90
22781;DHT22;11557;50.884;4.322;2023-06-14T06:02:25;21.90;99.90
22781;DHT22;11557;50.884;4.322;2023-06-14T06:04:51;22.00;99.90
22781;DHT22;11557;50.884;4.322;2023-06-14T06:07:16;22.10;99.90
22781;DHT22;11557;50.884;4.322;2023-06-14T06:09:42;22.10;99.90
22781;DHT22;11557;50.884;4.322;2023-06-14T06:12:07;22.10;99.90
22781;DHT22;11557;50.884;4.322;2023-06-14T06:14:33;22.20;99.90
22781;DHT22;11557;50.884;4.322;2023-06-14T06:16:59;22.30;99.90
22781;DHT22;11557;50.884;4.322;2023-06-14T06:19:24;22.30;99.90
22781;DHT22;11557;50.884;4.322;2023-06-14T06:21:50;22.30;99.90
22781;DHT22;11557;50.884;4.322;2023-06-14T06:24:16;22.30;99.90
22781;DHT22;11557;50.884;4.322;2023-06-14T06:26:42;22.40;99.90
22781;DHT22;11557;50.884;4.322;2023-06-14T06:29:08;22.40;99.90
22781;DHT22;11557;50.884;4.322;2023-06-14T06:31:33;22.50;99.90
22781;DHT22;11557;50.884;4.322;2023-06-14T06:33:59;22.60;99.90
22781;DHT22;11557;50.884;4.322;2023-06-14T06:36:25;22.80;99.90
22781;DHT22;11557;50.884;4.322;2023-06-14T06:38:51;24.50;99.90
22781;DHT22;11557;50.884;4.322;2023-06-14T06:41:16;27.30;99.90
22781;DHT22;11557;50.884;4.322;2023-06-14T06:43:42;30.30;99.90
22781;DHT22;11557;50.884;4.322;2023-06-14T06:46:08;32.90;95.60
22781;DHT22;11557;50.884;4.322;2023-06-14T06:48:33;35.40;93.10
22781;DHT22;11557;50.884;4.322;2023-06-14T06:50:59;37.40;87.70
22781;DHT22;11557;50.884;4.322;2023-06-14T06:53:25;38.70;81.00
22781;DHT22;11557;50.884;4.322;2023-06-14T06:55:50;40.10;77.90
22781;DHT22;11557;50.884;4.322;2023-06-14T06:58:16;41.20;74.30
22781;DHT22;11557;50.884;4.322;2023-06-14T07:00:42;42.10;71.70
22781;DHT22;11557;50.884;4.322;2023-06-14T07:03:07;43.00;71.00
22781;DHT22;11557;50.884;4.322;2023-06-14T07:05:33;43.80;65.50
22781;DHT22;11557;50.884;4.322;2023-06-14T07:07:59;43.80;65.30
22781;DHT22;11557;50.884;4.322;2023-06-14T07:10:25;44.00;64.80
22781;DHT22;11557;50.884;4.322;2023-06-14T07:12:51;44.20;63.30
22781;DHT22;11557;50.884;4.322;2023-06-14T07:15:17;44.70;61.80
22781;DHT22;11557;50.884;4.322;2023-06-14T07:17:42;44.70;61.80
22781;DHT22;11557;50.884;4.322;2023-06-14T07:20:08;45.20;62.30
22781;DHT22;11557;50.884;4.322;2023-06-14T07:22:40;45.70;62.10
22781;DHT22;11557;50.884;4.322;2023-06-14T07:25:10;46.20;61.40
22781;DHT22;11557;50.884;4.322;2023-06-14T07:27:37;46.40;60.50
22781;DHT22;11557;50.884;4.322;2023-06-14T07:30:04;46.90;58.90
22781;DHT22;11557;50.884;4.322;2023-06-14T07:32:30;46.50;58.70
22781;DHT22;11557;50.884;4.322;2023-06-14T07:34:55;46.80;57.90
22781;DHT22;11557;50.884;4.322;2023-06-14T07:37:21;46.80;59.50
22781;DHT22;11557;50.884;4.322;2023-06-14T07:39:46;46.80;59.90
22781;DHT22;11557;50.884;4.322;2023-06-14T07:42:13;47.00;57.30
22781;DHT22;11557;50.884;4.322;2023-06-14T07:44:38;47.10;57.60
22781;DHT22;11557;50.884;4.322;2023-06-14T07:47:04;47.20;56.80
22781;DHT22;11557;50.884;4.322;2023-06-14T07:49:37;47.40;57.40
22781;DHT22;11557;50.884;4.322;2023-06-14T07:52:03;47.60;57.60
22781;DHT22;11557;50.884;4.322;2023-06-14T07:54:30;47.20;58.40
22781;DHT22;11557;50.884;4.322;2023-06-14T07:56:57;46.80;58.30
22781;DHT22;11557;50.884;4.322;2023-06-14T07:59:23;46.90;58.60
22781;DHT22;11557;50.884;4.322;2023-06-14T08:01:49;47.00;56.90
22781;DHT22;11557;50.884;4.322;2023-06-14T08:04:15;47.10;57.60
22781;DHT22;11557;50.884;4.322;2023-06-14T08:06:41;46.80;56.40
22781;DHT22;11557;50.884;4.322;2023-06-14T08:09:09;47.10;56.10
22781;DHT22;11557;50.884;4.322;2023-06-14T08:11:35;47.00;56.00
22781;DHT22;11557;50.884;4.322;2023-06-14T08:14:01;46.50;55.80
22781;DHT22;11557;50.884;4.322;2023-06-14T08:16:27;46.70;56.90
22781;DHT22;11557;50.884;4.322;2023-06-14T08:18:55;46.40;55.70
22781;DHT22;11557;50.884;4.322;2023-06-14T08:21:21;46.10;55.40
22781;DHT22;11557;50.884;4.322;2023-06-14T08:23:47;46.20;55.80
22781;DHT22;11557;50.884;4.322;2023-06-14T08:26:13;46.60;54.80
22781;DHT22;11557;50.884;4.322;2023-06-14T08:28:38;46.70;55.70
22781;DHT22;11557;50.884;4.322;2023-06-14T08:31:04;46.50;56.50
22781;DHT22;11557;50.884;4.322;2023-06-14T08:33:30;46.30;56.80
22781;DHT22;11557;50.884;4.322;2023-06-14T08:35:59;46.20;56.30
22781;DHT22;11557;50.884;4.322;2023-06-14T08:38:25;46.40;54.90
22781;DHT22;11557;50.884;4.322;2023-06-14T08:40:51;46.00;56.20
22781;DHT22;11557;50.884;4.322;2023-06-14T08:43:18;45.60;56.30
22781;DHT22;11557;50.884;4.322;2023-06-14T08:45:46;45.40;58.30
22781;DHT22;11557;50.884;4.322;2023-06-14T08:48:12;45.20;56.20
22781;DHT22;11557;50.884;4.322;2023-06-14T08:50:40;45.00;57.20
22781;DHT22;11557;50.884;4.322;2023-06-14T08:53:08;44.50;57.20
22781;DHT22;11557;50.884;4.322;2023-06-14T08:55:37;44.50;57.10
22781;DHT22;11557;50.884;4.322;2023-06-14T08:58:05;44.50;58.80
22781;DHT22;11557;50.884;4.322;2023-06-14T09:00:31;44.40;57.40
22781;DHT22;11557;50.884;4.322;2023-06-14T09:02:58;43.30;58.00
22781;DHT22;11557;50.884;4.322;2023-06-14T09:05:24;43.00;57.40
22781;DHT22;11557;50.884;4.322;2023-06-14T09:07:50;43.10;58.30
22781;DHT22;11557;50.884;4.322;2023-06-14T09:10:16;42.90;58.40
22781;DHT22;11557;50.884;4.322;2023-06-14T09:12:42;42.60;58.20
22781;DHT22;11557;50.884;4.322;2023-06-14T09:15:09;42.70;58.60
22781;DHT22;11557;50.884;4.322;2023-06-14T09:17:36;42.70;58.20
22781;DHT22;11557;50.884;4.322;2023-06-14T09:20:03;42.20;58.90
22781;DHT22;11557;50.884;4.322;2023-06-14T09:22:32;42.20;59.10
22781;DHT22;11557;50.884;4.322;2023-06-14T09:24:59;41.70;59.60
22781;DHT22;11557;50.884;4.322;2023-06-14T09:27:29;41.20;59.10
22781;DHT22;11557;50.884;4.322;2023-06-14T09:29:55;40.80;61.60
22781;DHT22;11557;50.884;4.322;2023-06-14T09:32:22;40.60;62.20
22781;DHT22;11557;50.884;4.322;2023-06-14T09:34:48;40.60;63.40
22781;DHT22;11557;50.884;4.322;2023-06-14T09:37:29;40.60;62.00
22781;DHT22;11557;50.884;4.322;2023-06-14T09:39:55;40.00;62.70
22781;DHT22;11557;50.884;4.322;2023-06-14T09:42:21;40.70;62.40
22781;DHT22;11557;50.884;4.322;2023-06-14T09:44:49;40.60;62.10
22781;DHT22;11557;50.884;4.322;2023-06-14T09:47:15;40.40;61.80
22781;DHT22;11557;50.884;4.322;2023-06-14T09:49:42;40.00;63.10
22781;DHT22;11557;50.884;4.322;2023-06-14T09:52:12;40.00;62.60
22781;DHT22;11557;50.884;4.322;2023-06-14T09:54:42;39.60;62.00
22781;DHT22;11557;50.884;4.322;2023-06-14T09:57:10;39.60;62.30
22781;DHT22;11557;50.884;4.322;2023-06-14T09:59:43;39.20;63.50
22781;DHT22;11557;50.884;4.322;2023-06-14T10:02:24;38.90;61.70
22781;DHT22;11557;50.884;4.322;2023-06-14T10:04:56;38.50;61.30
22781;DHT22;11557;50.884;4.322;2023-06-14T10:07:26;38.10;62.50
22781;DHT22;11557;50.884;4.322;2023-06-14T10:09:55;37.80;62.70
22781;DHT22;11557;50.884;4.322;2023-06-14T10:12:21;37.30;63.30
22781;DHT22;11557;50.884;4.322;2023-06-14T10:14:51;37.40;64.80
22781;DHT22;11557;50.884;4.322;2023-06-14T10:17:35;37.50;65.70
22781;DHT22;11557;50.884;4.322;2023-06-14T10:22:51;37.10;64.10
22781;DHT22;11557;50.884;4.322;2023-06-14T10:25:31;36.50;65.20
22781;DHT22;11557;50.884;4.322;2023-06-14T10:28:18;36.30;64.00
22781;DHT22;11557;50.884;4.322;2023-06-14T10:31:10;36.20;67.80
22781;DHT22;11557;50.884;4.322;2023-06-14T10:33:50;36.00;66.30
22781;DHT22;11557;50.884;4.322;2023-06-14T10:36:25;36.00;65.50
22781;DHT22;11557;50.884;4.322;2023-06-14T10:39:06;35.90;65.30
22781;DHT22;11557;50.884;4.322;2023-06-14T10:41:36;35.70;63.60
22781;DHT22;11557;50.884;4.322;2023-06-14T10:46:40;35.40;63.90
22781;DHT22;11557;50.884;4.322;2023-06-14T10:49:11;35.10;65.00
22781;DHT22;11557;50.884;4.322;2023-06-14T10:51:42;34.80;65.40
22781;DHT22;11557;50.884;4.322;2023-06-14T10:54:17;34.80;64.80
22781;DHT22;11557;50.884;4.322;2023-06-14T10:56:52;34.90;64.90
22781;DHT22;11557;50.884;4.322;2023-06-14T10:59:19;34.90;66.80
22781;DHT22;11557;50.884;4.322;2023-06-14T11:04:39;34.90;64.00
22781;DHT22;11557;50.884;4.322;2023-06-14T11:09:56;34.70;66.70
22781;DHT22;11557;50.884;4.322;2023-06-14T11:12:28;34.80;69.50
22781;DHT22;11557;50.884;4.322;2023-06-14T11:14:57;34.90;66.20
22781;DHT22;11557;50.884;4.322;2023-06-14T11:17:22;35.30;65.20
22781;DHT22;11557;50.884;4.322;2023-06-14T11:19:48;35.60;64.40
22781;DHT22;11557;50.884;4.322;2023-06-14T11:22:14;35.30;64.20
22781;DHT22;11557;50.884;4.322;2023-06-14T11:24:40;35.30;64.60
22781;DHT22;11557;50.884;4.322;2023-06-14T11:27:06;35.30;62.30
22781;DHT22;11557;50.884;4.322;2023-06-14T11:29:32;35.20;62.90
22781;DHT22;11557;50.884;4.322;2023-06-14T11:31:57;35.40;63.90
22781;DHT22;11557;50.884;4.322;2023-06-14T11:34:24;35.50;63.70
22781;DHT22;11557;50.884;4.322;2023-06-14T11:36:50;35.30;63.50
22781;DHT22;11557;50.884;4.322;2023-06-14T11:39:15;35.30;64.00
22781;DHT22;11557;50.884;4.322;2023-06-14T11:41:43;35.50;61.50
22781;DHT22;11557;50.884;4.322;2023-06-14T11:44:09;35.50;64.20
22781;DHT22;11557;50.884;4.322;2023-06-14T11:46:35;35.60;65.40
22781;DHT22;11557;50.884;4.322;2023-06-14T11:49:02;35.50;65.40
22781;DHT22;11557;50.884;4.322;2023-06-14T11:51:31;35.30;64.10
22781;DHT22;11557;50.884;4.322;2023-06-14T11:53:57;35.20;68.00
22781;DHT22;11557;50.884;4.322;2023-06-14T11:56:24;35.10;62.70
22781;DHT22;11557;50.884;4.322;2023-06-14T11:58:51;35.00;64.50
22781;DHT22;11557;50.884;4.322;2023-06-14T12:01:17;34.90;64.80
22781;DHT22;11557;50.884;4.322;2023-06-14T12:03:50;35.10;64.60
22781;DHT22;11557;50.884;4.322;2023-06-14T12:06:24;35.20;62.80
22781;DHT22;11557;50.884;4.322;2023-06-14T12:08:50;34.80;63.80
22781;DHT22;11557;50.884;4.322;2023-06-14T12:11:16;35.00;65.40
22781;DHT22;11557;50.884;4.322;2023-06-14T12:13:43;35.10;65.30
22781;DHT22;11557;50.884;4.322;2023-06-14T12:16:10;35.20;64.50
22781;DHT22;11557;50.884;4.322;2023-06-14T12:18:38;35.00;63.30
22781;DHT22;11557;50.884;4.322;2023-06-14T12:21:05;34.70;65.80
22781;DHT22;11557;50.884;4.322;2023-06-14T12:23:58;34.80;65.20
22781;DHT22;11557;50.884;4.322;2023-06-14T12:26:24;34.80;64.00
22781;DHT22;11557;50.884;4.322;2023-06-14T12:28:52;34.70;65.20
22781;DHT22;11557;50.884;4.322;2023-06-14T12:31:18;34.80;64.30
22781;DHT22;11557;50.884;4.322;2023-06-14T12:33:44;34.90;65.80
22781;DHT22;11557;50.884;4.322;2023-06-14T12:36:11;34.70;63.50
22781;DHT22;11557;50.884;4.322;2023-06-14T12:38:37;34.70;63.50
22781;DHT22;11557;50.884;4.322;2023-06-14T12:41:03;34.60;64.60
22781;DHT22;11557;50.884;4.322;2023-06-14T12:43:29;34.50;60.60
22781;DHT22;11557;50.884;4.322;2023-06-14T12:45:55;34.60;64.10
22781;DHT22;11557;50.884;4.322;2023-06-14T12:48:21;34.50;66.40
22781;DHT22;11557;50.884;4.322;2023-06-14T12:50:48;34.60;66.80
22781;DHT22;11557;50.884;4.322;2023-06-14T12:53:14;34.50;64.80
22781;DHT22;11557;50.884;4.322;2023-06-14T12:55:40;34.40;64.50
22781;DHT22;11557;50.884;4.322;2023-06-14T12:58:06;34.10;63.60
22781;DHT22;11557;50.884;4.322;2023-06-14T13:00:32;34.20;65.80
22781;DHT22;11557;50.884;4.322;2023-06-14T13:02:58;34.10;65.50
22781;DHT22;11557;50.884;4.322;2023-06-14T13:05:24;34.10;63.30
22781;DHT22;11557;50.884;4.322;2023-06-14T13:07:50;33.50;65.00
22781;DHT22;11557;50.884;4.322;2023-06-14T13:10:16;34.30;66.60
22781;DHT22;11557;50.884;4.322;2023-06-14T13:12:42;34.10;64.70
22781;DHT22;11557;50.884;4.322;2023-06-14T13:15:08;33.80;65.30
22781;DHT22;11557;50.884;4.322;2023-06-14T13:17:35;33.70;63.60
22781;DHT22;11557;50.884;4.322;2023-06-14T13:20:06;33.30;64.50
22781;DHT22;11557;50.884;4.322;2023-06-14T13:22:33;33.40;66.50
22781;DHT22;11557;50.884;4.322;2023-06-14T13:24:58;33.70;65.10
22781;DHT22;11557;50.884;4.322;2023-06-14T13:27:25;33.60;63.80
22781;DHT22;11557;50.884;4.322;2023-06-14T13:29:51;33.50;63.70
22781;DHT22;11557;50.884;4.322;2023-06-14T13:32:17;33.60;65.60
22781;DHT22;11557;50.884;4.322;2023-06-14T13:34:42;33.40;64.90
22781;DHT22;11557;50.884;4.322;2023-06-14T13:37:08;33.10;65.30
22781;DHT22;11557;50.884;4.322;2023-06-14T13:39:34;33.40;64.40
22781;DHT22;11557;50.884;4.322;2023-06-14T13:42:03;33.50;63.60
22781;DHT22;11557;50.884;4.322;2023-06-14T13:44:29;33.50;64.70
22781;DHT22;11557;50.884;4.322;2023-06-14T13:46:54;33.70;65.40
22781;DHT22;11557;50.884;4.322;2023-06-14T13:49:20;33.60;64.10
22781;DHT22;11557;50.884;4.322;2023-06-14T13:51:46;33.60;63.00
22781;DHT22;11557;50.884;4.322;2023-06-14T13:54:16;33.40;65.50
22781;DHT22;11557;50.884;4.322;2023-06-14T13:56:44;33.20;64.40
22781;DHT22;11557;50.884;4.322;2023-06-14T13:59:10;33.20;64.90
22781;DHT22;11557;50.884;4.322;2023-06-14T14:01:36;33.30;62.80
22781;DHT22;11557;50.884;4.322;2023-06-14T14:04:02;33.40;65.10
22781;DHT22;11557;50.884;4.322;2023-06-14T14:06:27;33.70;62.80
22781;DHT22;11557;50.884;4.322;2023-06-14T14:08:53;33.80;64.60
22781;DHT22;11557;50.884;4.322;2023-06-14T14:11:19;33.90;63.20
22781;DHT22;11557;50.884;4.322;2023-06-14T14:13:46;34.00;62.30
22781;DHT22;11557;50.884;4.322;2023-06-14T14:16:12;34.10;64.10
22781;DHT22;11557;50.884;4.322;2023-06-14T14:18:38;33.70;61.90
22781;DHT22;11557;50.884;4.322;2023-06-14T14:21:04;33.70;62.30
22781;DHT22;11557;50.884;4.322;2023-06-14T14:23:30;33.70;64.10
22781;DHT22;11557;50.884;4.322;2023-06-14T14:25:56;33.70;62.50
22781;DHT22;11557;50.884;4.322;2023-06-14T14:28:22;33.60;64.90
22781;DHT22;11557;50.884;4.322;2023-06-14T14:30:48;33.70;63.20
22781;DHT22;11557;50.884;4.322;2023-06-14T14:33:14;33.60;61.40
22781;DHT22;11557;50.884;4.322;2023-06-14T14:35:43;33.40;63.50
22781;DHT22;11557;50.884;4.322;2023-06-14T14:38:09;33.40;61.80
22781;DHT22;11557;50.884;4.322;2023-06-14T14:40:35;33.50;62.70
22781;DHT22;11557;50.884;4.322;2023-06-14T14:43:00;33.50;62.20
22781;DHT22;11557;50.884;4.322;2023-06-14T14:45:26;33.50;63.90
22781;DHT22;11557;50.884;4.322;2023-06-14T14:47:52;33.40;62.60
22781;DHT22;11557;50.884;4.322;2023-06-14T14:50:21;33.40;64.10
22781;DHT22;11557;50.884;4.322;2023-06-14T14:52:46;33.30;61.60
22781;DHT22;11557;50.884;4.322;2023-06-14T14:55:12;33.30;62.70
22781;DHT22;11557;50.884;4.322;2023-06-14T14:57:38;33.30;60.90
22781;DHT22;11557;50.884;4.322;2023-06-14T15:00:04;33.40;61.00
22781;DHT22;11557;50.884;4.322;2023-06-14T15:02:31;33.60;60.50
22781;DHT22;11557;50.884;4.322;2023-06-14T15:04:57;33.50;62.70
22781;DHT22;11557;50.884;4.322;2023-06-14T15:07:27;33.40;62.30
22781;DHT22;11557;50.884;4.322;2023-06-14T15:09:53;33.20;60.50
22781;DHT22;11557;50.884;4.322;2023-06-14T15:12:19;33.10;61.60
22781;DHT22;11557;50.884;4.322;2023-06-14T15:14:50;33.40;61.60
22781;DHT22;11557;50.884;4.322;2023-06-14T15:17:17;32.90;61.00
22781;DHT22;11557;50.884;4.322;2023-06-14T15:19:44;32.80;62.50
22781;DHT22;11557;50.884;4.322;2023-06-14T15:22:10;32.80;62.00
22781;DHT22;11557;50.884;4.322;2023-06-14T15:24:35;32.70;61.80
22781;DHT22;11557;50.884;4.322;2023-06-14T15:27:01;32.50;61.00
22781;DHT22;11557;50.884;4.322;2023-06-14T15:29:27;32.50;62.20
22781;DHT22;11557;50.884;4.322;2023-06-14T15:31:52;32.50;65.10
22781;DHT22;11557;50.884;4.322;2023-06-14T15:34:20;32.60;62.80
22781;DHT22;11557;50.884;4.322;2023-06-14T15:36:46;32.60;62.10
22781;DHT22;11557;50.884;4.322;2023-06-14T15:39:11;32.70;62.80
22781;DHT22;11557;50.884;4.322;2023-06-14T15:41:38;32.70;62.20